Time;durP1;ratioP1;P1;durP2;ratioP2;P2;SDS_P1;SDS_P2;PMS_P1;PMS_P2;Temp;Humidity;BMP_temperature;BMP_pressure;BME280_temperature;BME280_humidity;BME280_pressure;Samples;Min_cycle;Max_cycle;Signal;HPM_P1;HPM_P2
2021/04/05 00:01:30;;;;;;;4.57;3.40;;;;;;;8.56;42.84;95418.78;5031618;28;20241;-80
2021/04/05 00:03:56;;;;;;;4.50;3.47;;;;;;;8.62;42.85;95417.31;5049239;28;20229;-78
2021/04/05 00:06:22;;;;;;;5.73;3.80;;;;;;;8.52;42.92;95419.28;5049732;28;20295;-77
2021/04/05 00:08:49;;;;;;;3.57;3.00;;;;;;;8.46;43.00;95412.28;5033652;28;20705;-79
2021/04/05 00:11:16;;;;;;;4.40;3.30;;;;;;;8.45;42.96;95406.34;5040160;28;20318;-79
2021/04/05 00:13:44;;;;;;;4.00;3.53;;;;;;;8.45;43.05;95401.22;5029454;28;20226;-79
2021/04/05 00:16:10;;;;;;;6.80;3.73;;;;;;;8.32;43.15;95388.91;5038177;28;20720;-78
2021/04/05 00:18:36;;;;;;;3.83;3.33;;;;;;;8.32;43.16;95383.78;5048140;28;20229;-77
2021/04/05 00:21:07;;;;;;;3.60;2.90;;;;;;;8.37;42.88;95383.28;5030223;28;20201;-79
2021/04/05 00:23:33;;;;;;;3.83;3.10;;;;;;;8.39;43.12;95385.69;5044361;28;20225;-79
2021/04/05 00:26:01;;;;;;;5.20;3.53;;;;;;;8.30;43.28;95382.31;5032441;28;20268;-80
2021/04/05 00:28:27;;;;;;;4.60;3.13;;;;;;;8.31;42.83;95384.72;5045617;28;20759;-80
2021/04/05 00:30:53;;;;;;;4.10;3.33;;;;;;;8.25;43.51;95389.72;5050018;28;20232;-80
2021/04/05 00:33:20;;;;;;;5.27;3.10;;;;;;;8.21;43.47;95379.00;5032016;28;20685;-79
2021/04/05 00:35:47;;;;;;;4.23;3.20;;;;;;;8.14;43.55;95367.78;5040209;28;20228;-79
2021/04/05 00:38:13;;;;;;;5.13;3.13;;;;;;;8.19;43.61;95357.84;5049117;28;20229;-79
2021/04/05 00:40:42;;;;;;;4.37;3.20;;;;;;;8.33;43.34;95353.78;5049026;28;20728;-80
2021/04/05 00:43:10;;;;;;;3.13;2.83;;;;;;;8.31;42.99;95346.22;5045488;28;20210;-78
2021/04/05 00:45:37;;;;;;;4.10;3.00;;;;;;;8.25;43.69;95344.38;5029350;28;20269;-78
2021/04/05 00:48:04;;;;;;;3.80;3.00;;;;;;;8.27;43.21;95350.09;5029879;28;20276;-79
2021/04/05 00:50:40;;;;;;;4.13;2.77;;;;;;;8.27;43.26;95346.75;5029152;28;21021;-77
2021/04/05 00:53:08;;;;;;;3.13;2.70;;;;;;;8.35;43.59;95344.16;5046003;28;20898;-78
2021/04/05 00:55:34;;;;;;;4.40;2.80;;;;;;;8.41;43.24;95338.38;5049515;28;20236;-80
2021/04/05 00:58:00;;;;;;;2.97;2.63;;;;;;;8.48;42.77;95335.91;5033159;28;20228;-78
2021/04/05 01:00:32;;;;;;;3.40;2.80;;;;;;;8.37;43.53;95323.47;5032202;28;20193;-77
2021/04/05 01:02:58;;;;;;;3.20;2.90;;;;;;;8.31;43.24;95315.47;5049124;28;20242;-77
2021/04/05 01:05:24;;;;;;;3.30;2.37;;;;;;;8.38;43.10;95313.06;5047232;28;20218;-80
2021/04/05 01:07:51;;;;;;;3.40;2.70;;;;;;;8.36;43.00;95314.97;5049241;28;20275;-76
2021/04/05 01:10:17;;;;;;;3.00;2.70;;;;;;;8.25;43.45;95305.09;5045644;28;20225;-78
2021/04/05 01:12:43;;;;;;;3.50;2.77;;;;;;;8.22;43.74;95303.66;5030717;28;20308;-78
2021/04/05 01:15:11;;;;;;;5.23;2.63;;;;;;;8.20;43.76;95304.78;5031579;28;20198;-77
2021/04/05 01:17:38;;;;;;;3.77;2.83;;;;;;;8.17;43.82;95307.69;5049527;28;20291;-77
2021/04/05 01:20:08;;;;;;;2.53;2.33;;;;;;;8.24;43.94;95311.19;5037247;28;20244;-77
2021/04/05 01:22:35;;;;;;;4.53;2.70;;;;;;;8.23;43.88;95300.13;5040369;28;20232;-78
2021/04/05 01:25:01;;;;;;;4.50;2.73;;;;;;;8.30;43.24;95311.28;5037778;28;20764;-79
2021/04/05 01:27:27;;;;;;;4.10;2.80;;;;;;;8.23;44.22;95307.81;5029016;28;20240;-79
2021/04/05 01:29:53;;;;;;;3.23;2.57;;;;;;;8.28;43.60;95302.97;5037831;28;20287;-78
2021/04/05 01:32:19;;;;;;;4.27;2.50;;;;;;;8.33;43.93;95299.94;5043711;28;20233;-76
2021/04/05 01:34:45;;;;;;;4.03;3.00;;;;;;;8.38;43.27;95297.66;5031278;28;20245;-77
2021/04/05 01:37:11;;;;;;;4.20;2.80;;;;;;;8.37;43.63;95290.94;5048851;28;20248;-76
2021/04/05 01:39:38;;;;;;;6.00;2.80;;;;;;;8.40;43.65;95290.59;5047840;28;20675;-77
2021/04/05 01:42:05;;;;;;;3.10;2.80;;;;;;;8.36;43.67;95279.06;5048940;28;20197;-79
2021/04/05 01:44:32;;;;;;;3.53;2.40;;;;;;;8.29;43.57;95278.91;5042406;28;20304;-78
2021/04/05 01:46:58;;;;;;;3.77;2.80;;;;;;;8.26;43.93;95269.03;5039847;28;20222;-77
2021/04/05 01:49:24;;;;;;;4.37;2.60;;;;;;;8.20;43.90;95259.44;5044423;28;20746;-77
2021/04/05 01:51:50;;;;;;;2.80;2.40;;;;;;;8.19;44.00;95262.16;5029524;28;20229;-77
2021/04/05 01:54:16;;;;;;;4.80;2.80;;;;;;;8.14;44.02;95267.78;5034469;28;20244;-78
2021/04/05 01:56:44;;;;;;;2.83;2.53;;;;;;;8.16;44.29;95267.63;5053240;28;20273;-78
2021/04/05 01:59:12;;;;;;;3.27;2.67;;;;;;;8.17;44.35;95259.75;5051170;28;20233;-77
2021/04/05 02:01:38;;;;;;;3.87;2.60;;;;;;;8.17;44.29;95259.75;5034299;28;20233;-77
2021/04/05 02:04:05;;;;;;;3.50;2.47;;;;;;;8.19;44.03;95262.16;5040759;28;20213;-80
2021/04/05 02:06:33;;;;;;;4.93;2.67;;;;;;;8.07;44.33;95253.28;5037551;28;20200;-76
2021/04/05 02:09:05;;;;;;;2.90;2.60;;;;;;;8.12;44.37;95240.72;5052490;28;20225;-78
2021/04/05 02:11:36;;;;;;;3.90;2.77;;;;;;;8.03;44.62;95237.41;5047445;28;20827;-78
2021/04/05 02:14:10;;;;;;;2.90;2.53;;;;;;;8.01;44.72;95236.00;5031295;28;20292;-78
2021/04/05 02:16:37;;;;;;;3.90;2.90;;;;;;;8.06;44.69;95231.97;5030749;28;20233;-79
2021/04/05 02:19:04;;;;;;;3.30;2.47;;;;;;;8.09;44.52;95231.59;5041180;28;20778;-76
2021/04/05 02:21:31;;;;;;;4.07;2.67;;;;;;;8.13;44.61;95234.63;5049861;28;20245;-77
2021/04/05 02:24:02;;;;;;;3.93;2.43;;;;;;;8.13;44.31;95230.28;5037478;28;20205;-79
2021/04/05 02:26:30;;;;;;;2.53;2.33;;;;;;;8.09;44.49;95221.34;5033755;28;20229;-76
2021/04/05 02:28:59;;;;;;;4.00;2.40;;;;;;;8.06;44.48;95214.00;5032229;28;20238;-76
2021/04/05 02:31:27;;;;;;;3.27;2.57;;;;;;;8.07;44.74;95213.06;5032175;28;20233;-79
2021/04/05 02:33:56;;;;;;;2.80;2.50;;;;;;;8.12;44.24;95210.75;5031292;28;20237;-78
2021/04/05 02:36:24;;;;;;;4.13;2.57;;;;;;;8.14;44.46;95205.44;5047770;28;20201;-77
2021/04/05 02:38:53;;;;;;;2.70;2.40;;;;;;;8.17;44.63;95207.69;5051731;28;20268;-77
2021/04/05 02:41:20;;;;;;;4.43;2.50;;;;;;;8.17;44.43;95202.56;5051287;28;20270;-79
2021/04/05 02:43:47;;;;;;;2.90;2.60;;;;;;;8.18;44.60;95206.72;5050783;28;20229;-78
2021/04/05 02:46:16;;;;;;;5.27;2.90;;;;;;;8.13;44.12;95217.47;5052127;28;20228;-78
2021/04/05 02:48:46;;;;;;;4.07;2.53;;;;;;;8.09;44.59;95218.78;5051814;28;20225;-77
2021/04/05 02:51:12;;;;;;;3.43;2.60;;;;;;;8.15;44.59;95222.44;5051900;28;20202;-80
2021/04/05 02:53:45;;;;;;;3.70;2.70;;;;;;;8.16;44.66;95214.56;5043480;28;20226;-76
2021/04/05 02:56:11;;;;;;;3.27;2.77;;;;;;;8.05;44.84;95209.84;5031616;28;20233;-77
2021/04/05 02:58:40;;;;;;;3.30;2.60;;;;;;;7.95;44.90;95194.69;5045260;28;20241;-78
2021/04/05 03:01:07;;;;;;;4.10;2.73;;;;;;;7.96;44.96;95192.91;5051205;28;20226;-79
2021/04/05 03:03:33;;;;;;;2.87;2.57;;;;;;;7.97;44.66;95190.19;5037233;28;20201;-76
2021/04/05 03:06:00;;;;;;;3.33;2.50;;;;;;;7.90;44.95;95179.00;5032744;28;20229;-79
2021/04/05 03:08:27;;;;;;;3.70;2.60;;;;;;;7.81;45.51;95181.78;5043746;28;20233;-79
2021/04/05 03:10:55;;;;;;;2.90;2.60;;;;;;;7.75;45.48;95177.34;5049658;28;20228;-79
2021/04/05 03:13:22;;;;;;;4.40;2.73;;;;;;;7.72;45.19;95165.66;5030652;28;20343;-77
2021/04/05 03:15:48;;;;;;;4.23;2.50;;;;;;;7.72;45.70;95162.28;5031136;28;20222;-77
2021/04/05 03:18:14;;;;;;;2.90;2.60;;;;;;;7.75;45.68;95162.75;5031150;28;20248;-77
2021/04/05 03:20:41;;;;;;;2.87;2.40;;;;;;;7.76;45.29;95148.19;5031176;28;20229;-78
2021/04/05 03:23:08;;;;;;;23.27;3.17;;;;;;;7.78;45.57;95143.69;5046465;28;20218;-76
2021/04/05 03:25:34;;;;;;;2.70;2.50;;;;;;;7.77;45.22;95137.78;5040389;28;20222;-77
2021/04/05 03:28:00;;;;;;;3.20;2.50;;;;;;;7.77;45.60;95134.41;5031410;28;20221;-79
2021/04/05 03:30:31;;;;;;;2.63;2.40;;;;;;;7.78;45.66;95134.25;5039738;28;20304;-78
2021/04/05 03:33:02;;;;;;;3.17;2.53;;;;;;;7.72;45.49;95129.78;5045033;28;20186;-79
2021/04/05 03:35:32;;;;;;;4.43;3.10;;;;;;;7.64;45.87;95124.72;5037853;28;20678;-77
2021/04/05 03:38:00;;;;;;;3.03;2.63;;;;;;;7.69;45.65;95116.53;5049862;28;20229;-80
2021/04/05 03:40:29;;;;;;;2.80;2.43;;;;;;;7.69;45.92;95116.53;5050448;28;20237;-77
2021/04/05 03:43:02;;;;;;;3.13;2.53;;;;;;;7.69;45.53;95109.66;5045833;28;20222;-77
2021/04/05 03:45:36;;;;;;;4.53;2.50;;;;;;;7.69;45.78;95103.72;5030447;28;20206;-77
2021/04/05 03:48:09;;;;;;;2.93;2.40;;;;;;;7.66;45.84;95092.06;5036208;28;20193;-77
2021/04/05 03:50:40;;;;;;;4.10;2.50;;;;;;;7.50;46.20;95094.72;5050421;28;20236;-76
2021/04/05 03:53:15;;;;;;;3.53;2.57;;;;;;;7.54;45.86;95088.28;5039692;28;20217;-78
2021/04/05 03:55:43;;;;;;;3.20;2.50;;;;;;;7.48;46.54;95078.72;5038221;28;20225;-78
2021/04/05 03:58:12;;;;;;;4.07;2.47;;;;;;;7.44;46.14;95080.81;5030958;28;20767;-80
2021/04/05 04:00:41;;;;;;;2.53;2.30;;;;;;;7.43;45.99;95081.00;5040765;28;20232;-80
2021/04/05 04:03:11;;;;;;;5.47;2.77;;;;;;;7.42;46.39;95077.63;5044831;28;20206;-79
2021/04/05 04:05:45;;;;;;;3.10;2.63;;;;;;;7.35;46.23;95078.47;5034732;28;20228;-79
2021/04/05 04:08:17;;;;;;;3.17;2.50;;;;;;;7.33;46.03;95075.28;5050087;28;20640;-79
2021/04/05 04:10:47;;;;;;;2.87;2.20;;;;;;;7.34;46.18;95076.88;5045498;28;20221;-80
2021/04/05 04:13:15;;;;;;;4.40;2.17;;;;;;;7.27;46.39;95071.63;5031356;28;20252;-79
2021/04/05 04:15:43;;;;;;;3.37;2.57;;;;;;;7.22;46.24;95077.25;5029029;28;20229;-78
2021/04/05 04:18:10;;;;;;;3.73;2.40;;;;;;;7.25;46.14;95071.00;5031897;28;20217;-78
2021/04/05 04:20:36;;;;;;;5.67;2.37;;;;;;;7.28;46.21;95066.34;5030056;28;20233;-77
2021/04/05 04:23:03;;;;;;;4.70;2.30;;;;;;;7.25;46.44;95065.88;5043791;28;20222;-78
2021/04/05 04:25:29;;;;;;;3.00;2.37;;;;;;;7.16;46.38;95066.88;5050634;28;20228;-79
2021/04/05 04:27:56;;;;;;;3.23;2.20;;;;;;;7.26;46.50;95055.47;5047859;28;20929;-79
2021/04/05 04:30:33;;;;;;;5.83;2.60;;;;;;;7.32;46.17;95048.06;5029717;28;20197;-77
2021/04/05 04:33:01;;;;;;;3.90;2.30;;;;;;;7.35;46.49;95045.16;5037772;28;20662;-78
2021/04/05 04:35:28;;;;;;;3.37;2.40;;;;;;;7.21;46.84;95036.47;5029780;28;20226;-79
2021/04/05 04:37:54;;;;;;;2.73;2.20;;;;;;;7.22;46.61;95033.72;5038497;28;20226;-79
2021/04/05 04:40:24;;;;;;;2.30;2.10;;;;;;;7.27;46.51;95023.00;5049863;28;20270;-76
2021/04/05 04:42:50;;;;;;;3.07;2.30;;;;;;;7.21;46.54;95029.56;5041861;28;20321;-77
2021/04/05 04:45:18;;;;;;;2.33;2.10;;;;;;;7.20;46.73;95015.19;5031580;28;20673;-77
2021/04/05 04:47:44;;;;;;;2.77;2.20;;;;;;;7.27;46.50;95007.63;5049719;28;20225;-79
2021/04/05 04:50:14;;;;;;;2.83;2.10;;;;;;;7.33;46.17;95009.50;5048626;28;20225;-77
2021/04/05 04:52:40;;;;;;;3.17;2.30;;;;;;;7.33;46.47;94998.44;5032112;28;20221;-79
2021/04/05 04:55:08;;;;;;;2.90;2.30;;;;;;;7.39;46.13;95002.91;5049561;28;20247;-79
2021/04/05 04:57:34;;;;;;;3.23;2.50;;;;;;;7.46;45.96;94998.69;5030363;28;20210;-79
2021/04/05 05:00:00;;;;;;;3.03;2.33;;;;;;;7.48;46.31;94999.31;5038866;28;20769;-79
2021/04/05 05:02:27;;;;;;;2.97;2.23;;;;;;;7.45;46.48;94999.66;5048876;28;20241;-79
2021/04/05 05:04:54;;;;;;;3.00;2.47;;;;;;;7.57;45.74;94996.50;5041369;28;20232;-77
2021/04/05 05:07:21;;;;;;;3.90;2.40;;;;;;;7.70;45.93;94992.59;5033088;28;20226;-79
2021/04/05 05:09:47;;;;;;;3.30;2.47;;;;;;;7.76;45.49;94992.69;5037474;28;20221;-78
2021/04/05 05:12:15;;;;;;;2.93;2.17;;;;;;;7.78;45.90;94993.31;5031777;28;20267;-75
2021/04/05 05:14:41;;;;;;;4.67;2.33;;;;;;;7.78;45.67;94993.31;5028980;28;20234;-78
2021/04/05 05:17:07;;;;;;;2.73;2.23;;;;;;;7.75;46.25;94993.66;5030485;28;20743;-78
2021/04/05 05:19:36;;;;;;;3.97;1.97;;;;;;;7.74;46.13;94997.19;5029356;28;20230;-79
2021/04/05 05:22:04;;;;;;;4.07;2.83;;;;;;;7.79;45.93;94992.34;5044221;28;20225;-79
2021/04/05 05:24:32;;;;;;;3.67;2.57;;;;;;;7.78;46.11;94995.06;5048768;28;20712;-79
2021/04/05 05:26:58;;;;;;;3.37;2.20;;;;;;;7.87;46.18;94996.59;5035993;28;20202;-77
2021/04/05 05:29:25;;;;;;;2.77;2.50;;;;;;;8.05;45.73;94998.84;5029745;28;20232;-77
2021/04/05 05:31:51;;;;;;;3.80;2.20;;;;;;;8.10;45.51;95004.22;5042701;28;20286;-80
2021/04/05 05:34:19;;;;;;;4.97;2.30;;;;;;;7.96;46.11;94998.09;5040333;28;20222;-79
2021/04/05 05:36:47;;;;;;;2.37;2.10;;;;;;;7.91;46.00;94992.69;5038892;28;20589;-79
2021/04/05 05:39:14;;;;;;;3.07;2.40;;;;;;;8.04;45.73;94989.56;5049801;28;20220;-79
2021/04/05 05:41:52;;;;;;;3.53;2.40;;;;;;;8.14;45.64;94982.38;5052452;28;20221;-78
2021/04/05 05:44:23;;;;;;;3.57;2.10;;;;;;;8.21;45.76;94973.81;5056789;28;20228;-78
2021/04/05 05:46:53;;;;;;;3.37;2.50;;;;;;;8.24;45.37;94962.41;5044971;28;20288;-78
2021/04/05 05:49:29;;;;;;;2.60;2.37;;;;;;;8.40;44.94;94966.59;5054242;28;20229;-78
2021/04/05 05:52:06;;;;;;;2.37;2.17;;;;;;;8.37;44.84;94954.13;5044027;28;20237;-76
2021/04/05 05:54:51;;;;;;;2.53;2.33;;;;;;;8.30;44.85;94956.56;5036364;28;20234;-78
2021/04/05 06:00:28;;;;;;;2.73;2.47;;;;;;;8.47;44.11;94947.72;5055430;28;20220;-78
2021/04/05 06:03:05;;;;;;;3.20;2.37;;;;;;;8.42;44.18;94949.25;5044118;28;20207;-78
2021/04/05 06:05:43;;;;;;;2.57;2.33;;;;;;;8.49;44.08;94958.63;5057937;28;20263;-78
2021/04/05 06:08:20;;;;;;;3.07;2.30;;;;;;;8.49;43.85;94950.13;5046968;28;20232;-77
2021/04/05 06:10:55;;;;;;;2.77;2.50;;;;;;;8.55;43.73;94944.28;5057381;28;20739;-76
2021/04/05 06:13:27;;;;;;;2.30;2.10;;;;;;;8.75;43.41;94950.44;5037446;28;20230;-78
2021/04/05 06:16:09;;;;;;;2.33;2.13;;;;;;;8.81;43.50;94954.84;5036791;28;20831;-77
2021/04/05 06:18:49;;;;;;;2.90;2.50;;;;;;;8.73;43.08;94952.38;5052650;28;20217;-78
2021/04/05 06:21:28;;;;;;;4.00;2.77;;;;;;;8.73;43.16;94946.47;5040154;28;20255;-79
2021/04/05 06:24:00;;;;;;;3.20;2.50;;;;;;;8.77;43.45;94940.78;5054145;28;20229;-77
2021/04/05 06:26:43;;;;;;;3.80;2.53;;;;;;;8.93;42.95;94937.19;5038309;28;21006;-79
2021/04/05 06:29:17;;;;;;;3.93;2.83;;;;;;;9.02;42.31;94930.19;5039924;28;20221;-78
2021/04/05 06:31:52;;;;;;;3.17;2.60;;;;;;;9.04;42.18;94915.41;5053017;28;20229;-79
2021/04/05 06:34:28;;;;;;;3.53;2.50;;;;;;;9.21;41.79;94922.69;5034439;28;20245;-80
2021/04/05 06:37:04;;;;;;;2.90;2.43;;;;;;;9.26;41.42;94906.69;5050671;28;20647;-80
2021/04/05 06:39:34;;;;;;;3.93;2.33;;;;;;;9.27;41.06;94898.81;5032966;28;20561;-79
2021/04/05 06:42:17;;;;;;;3.03;2.50;;;;;;;9.40;40.34;94893.00;5034573;28;20221;-77
2021/04/05 06:44:57;;;;;;;3.70;2.53;;;;;;;9.49;40.27;94891.88;5038962;28;20225;-80
2021/04/05 06:48:00;;;;;;;3.83;2.93;;;;;;;9.63;40.00;94883.25;5050692;28;20248;-80
2021/04/05 06:50:32;;;;;;;3.70;2.50;;;;;;;9.87;39.82;94889.75;5052495;28;20221;-79
2021/04/05 06:53:34;;;;;;;3.97;2.43;;;;;;;10.08;38.97;94891.44;5044294;28;20248;-78
2021/04/05 06:56:07;;;;;;;3.57;2.63;;;;;;;10.09;38.75;94879.38;5022189;28;20305;-80
2021/04/05 06:59:12;;;;;;;2.87;2.60;;;;;;;10.17;38.78;94876.66;5042171;28;20232;-77
2021/04/05 07:01:53;;;;;;;3.57;3.03;;;;;;;10.28;38.76;94869.22;5033477;28;20281;-78
2021/04/05 07:04:32;;;;;;;4.33;2.73;;;;;;;10.42;38.29;94872.63;5032993;28;20230;-80
2021/04/05 07:07:10;;;;;;;3.50;2.50;;;;;;;10.42;38.03;94870.03;5045637;28;20788;-78
2021/04/05 07:09:45;;;;;;;6.37;3.10;;;;;;;10.50;37.51;94866.53;5037745;28;20233;-79
2021/04/05 07:12:52;;;;;;;5.93;2.87;;;;;;;10.56;37.57;94856.25;5033304;28;20270;-80
2021/04/05 07:15:34;;;;;;;3.47;2.73;;;;;;;10.80;37.00;94854.91;5023881;28;20232;-79
2021/04/05 07:18:11;;;;;;;3.23;2.60;;;;;;;11.01;36.88;94856.50;5032801;28;20206;-78
2021/04/05 07:20:48;;;;;;;4.80;2.60;;;;;;;11.09;36.12;94840.88;5043076;28;20225;-78
2021/04/05 07:23:27;;;;;;;2.80;2.43;;;;;;;11.29;36.39;94846.81;5049132;28;20229;-78
2021/04/05 07:26:07;;;;;;;3.77;2.23;;;;;;;11.40;36.30;94833.34;5052301;28;20717;-79
2021/04/05 07:28:48;;;;;;;6.20;2.77;;;;;;;11.54;35.90;94823.03;5051144;28;20228;-80
2021/04/05 07:31:24;;;;;;;4.67;2.33;;;;;;;11.81;35.54;94809.09;5051820;28;20236;-80
2021/04/05 07:33:53;;;;;;;4.07;2.60;;;;;;;11.79;35.02;94812.88;5050067;28;20241;-79
2021/04/05 07:36:27;;;;;;;7.37;2.50;;;;;;;11.85;35.47;94818.03;5045676;28;20199;-79
2021/04/05 07:39:00;;;;;;;2.87;2.40;;;;;;;12.09;35.10;94812.19;5044544;28;20218;-80
2021/04/05 07:41:33;;;;;;;4.07;2.67;;;;;;;12.26;34.54;94798.81;5031785;28;20380;-77
2021/04/05 07:44:16;;;;;;;3.63;2.53;;;;;;;12.41;33.88;94807.88;5031805;28;20221;-79
2021/04/05 07:46:48;;;;;;;3.47;2.53;;;;;;;12.62;33.94;94798.22;5036535;28;20256;-80
2021/04/05 07:49:20;;;;;;;5.13;2.60;;;;;;;12.69;33.09;94802.34;5047584;28;20275;-77
2021/04/05 07:51:51;;;;;;;4.37;2.70;;;;;;;12.67;32.87;94781.09;5050652;28;20221;-78
2021/04/05 07:54:20;;;;;;;6.00;2.57;;;;;;;12.84;33.06;94767.69;5035691;28;20222;-77
2021/04/05 07:56:58;;;;;;;4.03;2.80;;;;;;;13.02;32.41;94773.69;5045755;28;20201;-80
2021/04/05 07:59:34;;;;;;;3.83;2.63;;;;;;;12.82;32.40;94757.56;5035205;28;20226;-80
2021/04/05 08:02:08;;;;;;;6.13;2.80;;;;;;;12.62;32.85;94772.41;5039657;28;20226;-78
2021/04/05 08:04:52;;;;;;;4.17;2.80;;;;;;;12.77;32.48;94770.31;5031266;28;20238;-78
2021/04/05 08:07:29;;;;;;;6.93;3.00;;;;;;;13.02;32.07;94778.88;5045909;28;20307;-76
2021/04/05 08:10:08;;;;;;;5.80;2.37;;;;;;;13.20;32.06;94767.03;5051622;28;20236;-79
2021/04/05 08:12:46;;;;;;;4.00;2.50;;;;;;;13.19;31.28;94773.97;5034268;28;20247;-80
2021/04/05 08:15:23;;;;;;;3.43;2.60;;;;;;;13.36;31.87;94759.50;5032676;28;20218;-80
2021/04/05 08:18:15;;;;;;;5.13;2.30;;;;;;;13.67;31.59;94762.97;5051418;28;20228;-80
2021/04/05 08:20:45;;;;;;;6.00;2.77;;;;;;;13.75;31.08;94758.31;5051327;28;20221;-80
2021/04/05 08:23:21;;;;;;;3.40;2.67;;;;;;;13.83;30.73;94745.09;5051407;28;20226;-80
2021/04/05 08:25:57;;;;;;;6.37;2.70;;;;;;;14.09;31.37;94743.97;5052086;28;20741;-79
2021/04/05 08:28:32;;;;;;;3.30;2.20;;;;;;;14.42;30.59;94728.03;5052165;28;20224;-79
2021/04/05 08:31:12;;;;;;;5.40;2.57;;;;;;;14.05;30.31;94732.44;5052007;28;20236;-80
2021/04/05 08:33:53;;;;;;;3.73;2.57;;;;;;;13.90;30.62;94751.97;5051961;28;20394;-80
2021/04/05 08:36:28;;;;;;;4.67;3.50;;;;;;;13.82;31.24;94751.25;5051705;28;20197;-79
2021/04/05 08:39:04;;;;;;;4.90;2.60;;;;;;;13.90;30.86;94747.56;5051779;28;20213;-79
2021/04/05 08:41:38;;;;;;;3.80;2.50;;;;;;;14.14;30.60;94738.91;5051912;28;20233;-79
2021/04/05 08:44:14;;;;;;;4.30;2.43;;;;;;;14.59;29.80;94725.59;5051052;28;20225;-79
2021/04/05 08:46:41;;;;;;;3.07;2.50;;;;;;;14.92;29.72;94727.66;5051085;28;20675;-80
2021/04/05 08:49:11;;;;;;;4.73;2.43;;;;;;;15.13;29.01;94727.13;5051416;28;20221;-77
2021/04/05 08:51:44;;;;;;;3.83;2.40;;;;;;;15.42;29.40;94727.19;5051139;28;20198;-80
2021/04/05 08:54:14;;;;;;;5.97;2.87;;;;;;;15.45;28.76;94716.38;5052488;28;20217;-78
2021/04/05 08:56:44;;;;;;;2.73;2.17;;;;;;;15.69;28.47;94715.34;5051998;28;20225;-80
2021/04/05 08:59:17;;;;;;;5.83;2.40;;;;;;;15.69;28.34;94707.56;5051454;28;20245;-77
2021/04/05 09:01:48;;;;;;;3.67;2.23;;;;;;;15.75;28.46;94695.50;5050802;28;20240;-79
2021/04/05 09:04:20;;;;;;;4.07;2.23;;;;;;;15.65;28.00;94703.84;5051276;28;20225;-80
2021/04/05 09:06:57;;;;;;;4.70;2.23;;;;;;;15.75;27.99;94698.09;5051380;28;20296;-79
2021/04/05 09:09:24;;;;;;;5.60;2.10;;;;;;;15.74;28.16;94680.94;5050232;28;20229;-80
2021/04/05 09:11:50;;;;;;;6.57;2.53;;;;;;;15.69;28.68;94683.44;5051269;28;20213;-80
2021/04/05 09:14:18;;;;;;;3.40;2.43;;;;;;;15.42;28.66;94681.31;5051526;28;20528;-80
2021/04/05 09:17:10;;;;;;;14.50;2.80;;;;;;;15.51;28.75;94676.56;5051030;28;20225;-79
2021/04/05 09:19:51;;;;;;;6.63;2.40;;;;;;;15.43;28.58;94679.50;5050427;28;20236;-78
2021/04/05 09:22:44;;;;;;;5.57;2.10;;;;;;;15.47;28.98;94691.78;5051585;28;20229;-81
2021/04/05 09:25:24;;;;;;;7.63;2.87;;;;;;;15.20;28.34;94693.31;5050983;28;20312;-80
2021/04/05 09:28:03;;;;;;;5.47;2.53;;;;;;;15.03;28.72;94687.19;5050753;28;20243;-81
2021/04/05 09:30:59;;;;;;;2.20;1.90;;;;;;;15.21;29.40;94684.47;5050683;28;20657;-80
2021/04/05 09:34:10;;;;;;;7.03;2.10;;;;;;;15.30;28.93;94666.78;5045711;28;20673;-80
2021/04/05 09:37:06;;;;;;;7.93;2.17;;;;;;;15.36;28.91;94661.47;5046005;28;20794;-80
2021/04/05 09:40:09;;;;;;;4.77;2.20;;;;;;;15.43;28.95;94672.50;5034878;28;20220;-79
2021/04/05 09:42:56;;;;;;;5.30;2.30;;;;;;;15.49;29.39;94656.03;4967127;28;20199;-82
2021/04/05 09:45:30;;;;;;;4.50;2.10;;;;;;;15.48;28.54;94644.06;5042284;28;20208;-82
2021/04/05 09:48:23;;;;;;;7.90;2.73;;;;;;;15.44;28.70;94668.91;5034037;28;20205;-83
2021/04/05 09:51:05;;;;;;;6.53;2.33;;;;;;;15.38;28.65;94649.06;5046110;28;20581;-82
2021/04/05 09:53:47;;;;;;;6.03;2.03;;;;;;;15.45;28.23;94625.59;5041919;28;20213;-82
2021/04/05 09:56:19;;;;;;;11.87;2.13;;;;;;;15.11;28.73;94611.69;5050433;28;20245;-80
2021/04/05 09:58:51;;;;;;;7.30;2.40;;;;;;;15.02;29.11;94623.41;5043567;28;20478;-81
2021/04/05 10:01:21;;;;;;;3.57;2.10;;;;;;;14.98;29.51;94620.50;5033666;28;20213;-79
2021/04/05 10:03:52;;;;;;;4.63;2.10;;;;;;;15.00;29.41;94622.88;5044017;28;20309;-81
2021/04/05 10:06:20;;;;;;;5.47;2.10;;;;;;;14.90;29.20;94610.47;5032613;28;20208;-79
2021/04/05 10:08:49;;;;;;;4.47;1.97;;;;;;;14.91;28.68;94612.03;5049896;28;20229;-80
2021/04/05 10:11:16;;;;;;;4.70;2.10;;;;;;;14.92;28.41;94625.78;5047105;28;20225;-81
2021/04/05 10:13:45;;;;;;;5.93;2.07;;;;;;;14.98;28.20;94601.56;5032250;28;20237;-82
2021/04/05 10:16:13;;;;;;;3.33;1.83;;;;;;;15.01;28.32;94601.13;5039841;28;20222;-79
2021/04/05 10:18:47;;;;;;;4.93;1.80;;;;;;;15.06;28.77;94594.22;5053560;28;20229;-80
2021/04/05 10:21:14;;;;;;;2.63;1.60;;;;;;;15.27;28.89;94595.41;5042370;28;20195;-82
2021/04/05 10:23:41;;;;;;;7.63;2.53;;;;;;;15.18;28.51;94587.22;5040276;28;20222;-82
2021/04/05 10:26:09;;;;;;;3.43;1.77;;;;;;;15.35;28.19;94579.50;5043716;28;20229;-80
2021/04/05 10:28:38;;;;;;;2.70;2.03;;;;;;;15.40;28.20;94569.19;5048594;28;20244;-82
2021/04/05 10:31:07;;;;;;;9.23;5.30;;;;;;;15.36;28.79;94562.13;5044645;28;20221;-82
2021/04/05 10:33:37;;;;;;;4.30;1.97;;;;;;;15.32;28.33;94558.41;5049241;28;20686;-78
2021/04/05 10:36:06;;;;;;;2.27;1.73;;;;;;;15.51;28.59;94568.38;5033595;28;20208;-82
2021/04/05 10:38:35;;;;;;;4.33;2.00;;;;;;;15.40;27.96;94565.81;5042292;28;20261;-78
2021/04/05 10:41:01;;;;;;;3.23;1.87;;;;;;;15.17;28.52;94579.66;5033215;28;20229;-78
2021/04/05 10:43:35;;;;;;;2.77;1.87;;;;;;;15.31;28.60;94556.84;5034684;28;20230;-79
2021/04/05 10:46:06;;;;;;;5.37;1.77;;;;;;;15.15;28.84;94546.19;5052321;28;20224;-81
2021/04/05 10:48:41;;;;;;;5.30;1.83;;;;;;;15.21;28.91;94545.25;5052919;28;20218;-82
2021/04/05 10:51:11;;;;;;;4.47;2.00;;;;;;;15.16;28.64;94539.97;5051912;28;20199;-78
2021/04/05 10:53:41;;;;;;;9.33;2.63;;;;;;;14.94;29.36;94513.09;5035154;28;20252;-83
2021/04/05 10:56:09;;;;;;;2.97;2.00;;;;;;;14.90;29.79;94544.88;5032433;28;20280;-80
2021/04/05 10:58:44;;;;;;;4.47;1.80;;;;;;;14.79;29.62;94536.13;5051528;28;20239;-78
2021/04/05 11:01:12;;;;;;;4.80;1.90;;;;;;;14.63;29.94;94527.22;5042550;28;20901;-80
2021/04/05 11:03:43;;;;;;;2.80;2.07;;;;;;;14.69;29.85;94534.09;5032776;28;20226;-78
2021/04/05 11:06:14;;;;;;;3.77;1.97;;;;;;;14.80;30.50;94530.72;5042278;28;20542;-80
2021/04/05 11:08:42;;;;;;;4.13;1.90;;;;;;;14.84;29.51;94515.47;5052240;28;20248;-80
2021/04/05 11:11:12;;;;;;;3.43;1.80;;;;;;;14.92;30.00;94506.56;5041911;28;20222;-80
2021/04/05 11:13:43;;;;;;;3.33;2.00;;;;;;;14.90;29.98;94501.63;5032822;28;20221;-79
2021/04/05 11:16:11;;;;;;;5.47;3.57;;;;;;;15.04;29.76;94515.09;5051693;28;20225;-77
2021/04/05 11:18:45;;;;;;;4.07;2.20;;;;;;;15.14;29.37;94504.94;5052158;28;20217;-80
2021/04/05 11:21:11;;;;;;;2.70;1.77;;;;;;;15.25;29.18;94480.75;5052119;28;20272;-80
2021/04/05 11:23:45;;;;;;;4.60;2.27;;;;;;;15.28;29.78;94484.69;5049731;28;20226;-78
2021/04/05 11:26:12;;;;;;;2.47;2.07;;;;;;;15.33;28.91;94482.19;5047191;28;20213;-78
2021/04/05 11:28:42;;;;;;;2.13;1.93;;;;;;;15.44;28.88;94476.16;5040765;28;20221;-80
2021/04/05 11:31:12;;;;;;;2.87;2.20;;;;;;;15.63;28.69;94474.16;5050231;28;20702;-79
2021/04/05 11:33:47;;;;;;;5.57;2.10;;;;;;;15.80;28.36;94462.75;5052810;28;20209;-82
2021/04/05 11:36:13;;;;;;;5.93;2.23;;;;;;;15.79;28.16;94452.63;5049249;28;20191;-83
2021/04/05 11:38:51;;;;;;;2.60;1.77;;;;;;;15.78;28.30;94477.78;5040396;28;20238;-79
2021/04/05 11:41:19;;;;;;;5.43;2.60;;;;;;;15.87;28.16;94449.63;5053250;28;20275;-83
2021/04/05 11:43:53;;;;;;;10.10;2.70;;;;;;;15.87;28.19;94442.63;5038638;28;20230;-83
2021/04/05 11:46:21;;;;;;;4.73;2.10;;;;;;;15.88;27.89;94433.03;5033245;28;20230;-85
2021/04/05 11:49:01;;;;;;;4.00;2.08;;;;;;;15.87;28.35;94426.28;5048526;28;20696;-86
2021/04/05 11:51:30;;;;;;;6.13;2.00;;;;;;;15.79;27.19;94437.84;5053031;28;20201;-83
2021/04/05 11:54:00;;;;;;;7.40;2.07;;;;;;;15.72;26.42;94432.03;5052056;28;20228;-81
2021/04/05 11:56:29;;;;;;;7.67;2.23;;;;;;;15.92;26.70;94422.97;5053207;28;20233;-81
2021/04/05 11:59:02;;;;;;;3.10;1.70;;;;;;;16.09;27.10;94400.38;5036550;28;20294;-82
2021/04/05 12:01:35;;;;;;;4.97;2.00;;;;;;;16.16;27.19;94409.53;5032599;28;20284;-78
2021/04/05 12:04:13;;;;;;;2.70;2.10;;;;;;;16.04;27.58;94408.88;5034325;28;20767;-81